Aeroporto :
LOGIN :

Iscrizione | Disclaimer

   EN    FR    IT 

 










Sommario :    VFR   VFR Marginale   IFR   IFR Intensivo   IFR Molto Intensivo
Visibilità : 
Base nubi : 
>= 8 km
>= 3000ft
5 / 8 km
1000 / 3000 ft
1500m / 5 km
500 / 1000 ft
800 / 1500m
200 / 500 ft
< 800m
< 200 ft
Simboli :   Temporali  Nebbia  Neve Forte  Precipitazioni Forti  Vento > 20 kt
SIGMETs :   Varie  Temporali  Ghiacco  Turbolenza  Onda orograficha  Ceneri Vulcaniche






- Altitudine del aeroporto : 502 ft
- Codice IATA : ORK


EICK - Cork

ULTIMO METAR :
  • 061130Z 28012KT 9999 SCT025 10/06 Q1005 NOSIG

METARs OBSOLETI :
  • 061100Z 28016KT 9999 BKN022 SCT046 11/06 Q1005 NOSIG
  • 061030Z 26012KT 9999 FEW019 SCT028 10/07 Q1004 NOSIG
  • 061000Z 25011KT 9999 FEW010 10/08 Q1004 NOSIG
  • 060930Z 26011KT 9999 FEW014 BKN034 10/08 Q1004 NOSIG
  • 060900Z 26015KT 9999 FEW013 10/08 Q1004 NOSIG

TAF TAF EICK
Valido dal 06 a 12 ore il 07 a 12 ore UTC


061100Z 0612/0712 29018G31KT 9999 SCT018 SCT030
PROB30
TEMPO 0612/0613 -SHRA SCT018CB
BECMG 0613/0615 29015G26KT
BECMG 0615/0617 29014KT
BECMG 0619/0621 25008KT
BECMG 0706/0708 22008KT
BECMG 0709/0711 22013KT BKN012
PROB30
TEMPO 0711/0712 BKN007



MetMap, La meteo Aeronautica in un colpo d'occhio ! - Copyright ORBIFLY Dicembre 2007 - Disclaimer

ORBIFLY MET'MAP TEAM :

Programmazione e sviluppo : Alexandra Zaïnal
Concezione : Baudouin d'Aumeries
Aiuto per la programmazione : Marc-Olivier Méhu
Supporto tecnico e logistico : Manuel Goepfert
Aiuto per la traduzione : Arnaldo La Scala

Contatto : metmap@orbifly.com




FONTI E CREDITI :

   NOAA